sensor_id;sensor_type;location;lat;lon;timestamp;pressure;altitude;pressure_sealevel;temperature;humidity
62864;BME280;48954;59.950;11.014;2023-05-11T00:02:25;99889.33;;;6.86;58.29
62864;BME280;48954;59.950;11.014;2023-05-11T00:04:56;99889.02;;;6.82;58.51
62864;BME280;48954;59.950;11.014;2023-05-11T00:07:23;99891.23;;;6.79;58.57
62864;BME280;48954;59.950;11.014;2023-05-11T00:09:50;99891.50;;;6.76;58.96
62864;BME280;48954;59.950;11.014;2023-05-11T00:12:16;99887.73;;;6.71;58.87
62864;BME280;48954;59.950;11.014;2023-05-11T00:14:43;99889.84;;;6.69;59.08
62864;BME280;48954;59.950;11.014;2023-05-11T00:17:10;99893.39;;;6.65;59.28
62864;BME280;48954;59.950;11.014;2023-05-11T00:19:36;99897.13;;;6.60;59.51
62864;BME280;48954;59.950;11.014;2023-05-11T00:22:03;99898.11;;;6.58;59.62
62864;BME280;48954;59.950;11.014;2023-05-11T00:24:29;99900.30;;;6.52;59.70
62864;BME280;48954;59.950;11.014;2023-05-11T00:27:02;99899.27;;;6.48;59.81
62864;BME280;48954;59.950;11.014;2023-05-11T00:29:28;99901.57;;;6.43;59.88
62864;BME280;48954;59.950;11.014;2023-05-11T00:31:55;99902.84;;;6.38;60.01
62864;BME280;48954;59.950;11.014;2023-05-11T00:34:21;99902.16;;;6.34;60.27
62864;BME280;48954;59.950;11.014;2023-05-11T00:36:53;99901.88;;;6.31;60.25
62864;BME280;48954;59.950;11.014;2023-05-11T00:39:19;99905.70;;;6.28;60.59
62864;BME280;48954;59.950;11.014;2023-05-11T00:41:46;99906.80;;;6.25;60.63
62864;BME280;48954;59.950;11.014;2023-05-11T00:44:13;99909.80;;;6.21;60.75
62864;BME280;48954;59.950;11.014;2023-05-11T00:46:39;99910.27;;;6.16;60.83
62864;BME280;48954;59.950;11.014;2023-05-11T00:49:07;99908.09;;;6.14;61.04
62864;BME280;48954;59.950;11.014;2023-05-11T00:51:33;99914.37;;;6.11;61.15
62864;BME280;48954;59.950;11.014;2023-05-11T00:54:01;99915.59;;;6.08;61.20
62864;BME280;48954;59.950;11.014;2023-05-11T00:56:33;99913.78;;;6.05;61.27
62864;BME280;48954;59.950;11.014;2023-05-11T00:58:59;99917.00;;;6.02;61.39
62864;BME280;48954;59.950;11.014;2023-05-11T01:01:26;99918.33;;;5.96;61.30
62864;BME280;48954;59.950;11.014;2023-05-11T01:03:52;99920.10;;;5.90;61.41
62864;BME280;48954;59.950;11.014;2023-05-11T01:10:01;99926.01;;;5.82;61.94
62864;BME280;48954;59.950;11.014;2023-05-11T01:13:22;99925.77;;;5.76;62.21
62864;BME280;48954;59.950;11.014;2023-05-11T01:18:10;99928.17;;;5.69;62.15
62864;BME280;48954;59.950;11.014;2023-05-11T01:20:44;99928.84;;;5.64;62.40
62864;BME280;48954;59.950;11.014;2023-05-11T01:23:44;99927.30;;;5.61;62.40
62864;BME280;48954;59.950;11.014;2023-05-11T01:26:30;99927.52;;;5.58;62.48
62864;BME280;48954;59.950;11.014;2023-05-11T01:31:48;99928.81;;;5.50;62.71
62864;BME280;48954;59.950;11.014;2023-05-11T01:34:21;99933.06;;;5.44;63.00
62864;BME280;48954;59.950;11.014;2023-05-11T01:36:58;99934.98;;;5.40;63.07
62864;BME280;48954;59.950;11.014;2023-05-11T01:39:39;99932.44;;;5.37;63.33
62864;BME280;48954;59.950;11.014;2023-05-11T01:42:09;99934.04;;;5.35;63.39
62864;BME280;48954;59.950;11.014;2023-05-11T01:44:41;99934.14;;;5.30;63.48
62864;BME280;48954;59.950;11.014;2023-05-11T01:47:14;99934.45;;;5.27;63.73
62864;BME280;48954;59.950;11.014;2023-05-11T01:49:43;99933.45;;;5.24;63.66
62864;BME280;48954;59.950;11.014;2023-05-11T01:52:10;99937.65;;;5.22;63.85
62864;BME280;48954;59.950;11.014;2023-05-11T01:54:40;99943.39;;;5.20;63.79
62864;BME280;48954;59.950;11.014;2023-05-11T01:57:08;99940.58;;;5.16;63.82
62864;BME280;48954;59.950;11.014;2023-05-11T01:59:39;99943.45;;;5.13;63.88
62864;BME280;48954;59.950;11.014;2023-05-11T02:02:07;99952.55;;;5.11;64.47
62864;BME280;48954;59.950;11.014;2023-05-11T02:04:36;99953.54;;;5.09;64.58
62864;BME280;48954;59.950;11.014;2023-05-11T02:07:05;99951.78;;;5.06;64.61
62864;BME280;48954;59.950;11.014;2023-05-11T02:09:33;99955.18;;;5.03;64.64
62864;BME280;48954;59.950;11.014;2023-05-11T02:12:01;99959.34;;;5.01;64.64
62864;BME280;48954;59.950;11.014;2023-05-11T02:14:31;99960.57;;;4.97;64.55
62864;BME280;48954;59.950;11.014;2023-05-11T02:17:01;99961.40;;;4.93;64.87
62864;BME280;48954;59.950;11.014;2023-05-11T02:19:29;99958.23;;;4.90;64.84
62864;BME280;48954;59.950;11.014;2023-05-11T02:21:58;99960.89;;;4.89;64.95
62864;BME280;48954;59.950;11.014;2023-05-11T02:24:27;99960.29;;;4.87;64.89
62864;BME280;48954;59.950;11.014;2023-05-11T02:26:56;99959.86;;;4.86;65.11
62864;BME280;48954;59.950;11.014;2023-05-11T02:29:24;99960.27;;;4.83;65.00
62864;BME280;48954;59.950;11.014;2023-05-11T02:31:55;99962.04;;;4.81;65.16
62864;BME280;48954;59.950;11.014;2023-05-11T02:34:25;99962.74;;;4.78;65.46
62864;BME280;48954;59.950;11.014;2023-05-11T02:36:57;99963.63;;;4.75;65.42
62864;BME280;48954;59.950;11.014;2023-05-11T02:39:29;99962.44;;;4.70;65.48
62864;BME280;48954;59.950;11.014;2023-05-11T02:41:59;99968.20;;;4.67;65.52
62864;BME280;48954;59.950;11.014;2023-05-11T02:44:30;99969.18;;;4.63;65.59
62864;BME280;48954;59.950;11.014;2023-05-11T02:46:59;99968.68;;;4.59;65.71
62864;BME280;48954;59.950;11.014;2023-05-11T02:49:28;99968.61;;;4.56;65.71
62864;BME280;48954;59.950;11.014;2023-05-11T02:51:58;99967.14;;;4.53;66.04
62864;BME280;48954;59.950;11.014;2023-05-11T02:54:26;99968.96;;;4.49;66.00
62864;BME280;48954;59.950;11.014;2023-05-11T02:56:55;99965.42;;;4.45;66.05
62864;BME280;48954;59.950;11.014;2023-05-11T02:59:23;99968.54;;;4.42;66.07
62864;BME280;48954;59.950;11.014;2023-05-11T03:01:51;99972.68;;;4.39;66.28
62864;BME280;48954;59.950;11.014;2023-05-11T03:04:17;99973.08;;;4.36;66.41
62864;BME280;48954;59.950;11.014;2023-05-11T03:06:44;99976.59;;;4.35;66.52
62864;BME280;48954;59.950;11.014;2023-05-11T03:09:10;99975.23;;;4.35;66.73
62864;BME280;48954;59.950;11.014;2023-05-11T03:11:37;99979.94;;;4.34;66.74
62864;BME280;48954;59.950;11.014;2023-05-11T03:14:04;99980.64;;;4.34;66.89
62864;BME280;48954;59.950;11.014;2023-05-11T03:16:31;99981.56;;;4.34;66.84
62864;BME280;48954;59.950;11.014;2023-05-11T03:18:59;99981.90;;;4.36;67.11
62864;BME280;48954;59.950;11.014;2023-05-11T03:21:27;99980.77;;;4.38;67.13
62864;BME280;48954;59.950;11.014;2023-05-11T03:23:54;99979.57;;;4.42;67.13
62864;BME280;48954;59.950;11.014;2023-05-11T03:26:22;99978.42;;;4.45;67.07
62864;BME280;48954;59.950;11.014;2023-05-11T03:28:51;99977.69;;;4.49;67.17
62864;BME280;48954;59.950;11.014;2023-05-11T03:31:18;99981.16;;;4.53;67.31
62864;BME280;48954;59.950;11.014;2023-05-11T03:33:45;99978.20;;;4.58;67.40
62864;BME280;48954;59.950;11.014;2023-05-11T03:36:12;99975.34;;;4.64;67.49
62864;BME280;48954;59.950;11.014;2023-05-11T03:38:40;99978.23;;;4.73;67.50
62864;BME280;48954;59.950;11.014;2023-05-11T03:41:07;99978.80;;;4.80;67.34
62864;BME280;48954;59.950;11.014;2023-05-11T03:43:35;99979.65;;;4.86;67.55
62864;BME280;48954;59.950;11.014;2023-05-11T03:46:05;99978.52;;;4.93;67.53
62864;BME280;48954;59.950;11.014;2023-05-11T03:48:32;99979.10;;;5.02;67.44
62864;BME280;48954;59.950;11.014;2023-05-11T03:50:59;99975.35;;;5.09;67.58
62864;BME280;48954;59.950;11.014;2023-05-11T03:53:25;99974.83;;;5.15;67.59
62864;BME280;48954;59.950;11.014;2023-05-11T03:55:52;99979.48;;;5.22;67.59
62864;BME280;48954;59.950;11.014;2023-05-11T03:58:19;99983.40;;;5.30;67.51
62864;BME280;48954;59.950;11.014;2023-05-11T04:00:45;99982.84;;;5.37;67.36
62864;BME280;48954;59.950;11.014;2023-05-11T04:03:12;99981.21;;;5.44;67.39
62864;BME280;48954;59.950;11.014;2023-05-11T04:05:39;99982.32;;;5.51;67.45
62864;BME280;48954;59.950;11.014;2023-05-11T04:08:08;99980.23;;;5.56;67.60
62864;BME280;48954;59.950;11.014;2023-05-11T04:10:36;99979.69;;;5.63;67.31
62864;BME280;48954;59.950;11.014;2023-05-11T04:13:02;99981.89;;;5.70;67.49
62864;BME280;48954;59.950;11.014;2023-05-11T04:15:29;99984.06;;;5.77;67.51
62864;BME280;48954;59.950;11.014;2023-05-11T04:17:55;99981.88;;;5.84;67.17
62864;BME280;48954;59.950;11.014;2023-05-11T04:20:22;99984.78;;;5.89;67.10
62864;BME280;48954;59.950;11.014;2023-05-11T04:22:48;99990.67;;;5.92;66.87
62864;BME280;48954;59.950;11.014;2023-05-11T04:25:15;99989.84;;;5.95;66.97
62864;BME280;48954;59.950;11.014;2023-05-11T04:27:41;99994.92;;;6.01;67.27
62864;BME280;48954;59.950;11.014;2023-05-11T04:30:08;99996.42;;;6.09;67.15
62864;BME280;48954;59.950;11.014;2023-05-11T04:32:35;99998.15;;;6.18;67.02
62864;BME280;48954;59.950;11.014;2023-05-11T04:38:37;99990.70;;;6.32;66.77
62864;BME280;48954;59.950;11.014;2023-05-11T04:41:07;99998.06;;;6.43;66.89
62864;BME280;48954;59.950;11.014;2023-05-11T04:43:34;99999.16;;;6.51;66.95
62864;BME280;48954;59.950;11.014;2023-05-11T04:46:05;100002.78;;;6.57;66.65
62864;BME280;48954;59.950;11.014;2023-05-11T04:48:32;100005.40;;;6.63;66.52
62864;BME280;48954;59.950;11.014;2023-05-11T04:51:03;100006.38;;;6.68;66.41
62864;BME280;48954;59.950;11.014;2023-05-11T04:53:31;100005.31;;;6.71;66.45
62864;BME280;48954;59.950;11.014;2023-05-11T04:55:58;100009.61;;;6.72;66.29
62864;BME280;48954;59.950;11.014;2023-05-11T04:58:28;100005.92;;;6.74;66.37
62864;BME280;48954;59.950;11.014;2023-05-11T05:00:55;99998.56;;;6.75;66.40
62864;BME280;48954;59.950;11.014;2023-05-11T05:03:22;100001.19;;;6.77;66.34
62864;BME280;48954;59.950;11.014;2023-05-11T05:05:52;100000.14;;;6.78;66.07
62864;BME280;48954;59.950;11.014;2023-05-11T05:08:18;100006.36;;;6.81;66.19
62864;BME280;48954;59.950;11.014;2023-05-11T05:10:46;100007.73;;;6.84;66.12
62864;BME280;48954;59.950;11.014;2023-05-11T05:13:13;100004.69;;;6.88;66.24
62864;BME280;48954;59.950;11.014;2023-05-11T05:15:44;100004.48;;;6.92;65.98
62864;BME280;48954;59.950;11.014;2023-05-11T05:18:11;100006.96;;;6.99;65.75
62864;BME280;48954;59.950;11.014;2023-05-11T05:20:37;100011.68;;;7.04;66.11
62864;BME280;48954;59.950;11.014;2023-05-11T05:23:04;100015.49;;;7.09;65.95
62864;BME280;48954;59.950;11.014;2023-05-11T05:25:31;100017.49;;;7.14;65.91
62864;BME280;48954;59.950;11.014;2023-05-11T05:27:57;100021.65;;;7.19;65.95
62864;BME280;48954;59.950;11.014;2023-05-11T05:30:28;100018.41;;;7.24;65.76
62864;BME280;48954;59.950;11.014;2023-05-11T05:32:54;100017.08;;;7.30;65.92
62864;BME280;48954;59.950;11.014;2023-05-11T05:35:21;100011.25;;;7.36;65.94
62864;BME280;48954;59.950;11.014;2023-05-11T05:37:47;100008.76;;;7.43;65.80
62864;BME280;48954;59.950;11.014;2023-05-11T05:40:14;100011.83;;;7.47;65.65
62864;BME280;48954;59.950;11.014;2023-05-11T05:42:40;100010.58;;;7.54;65.38
62864;BME280;48954;59.950;11.014;2023-05-11T05:45:07;100014.28;;;7.60;65.20
62864;BME280;48954;59.950;11.014;2023-05-11T05:47:34;100013.64;;;7.68;65.44
62864;BME280;48954;59.950;11.014;2023-05-11T05:50:00;100017.02;;;7.77;65.43
62864;BME280;48954;59.950;11.014;2023-05-11T05:52:27;100017.30;;;7.86;65.22
62864;BME280;48954;59.950;11.014;2023-05-11T05:54:53;100016.08;;;8.00;65.31
62864;BME280;48954;59.950;11.014;2023-05-11T05:57:20;100020.25;;;8.14;64.96
62864;BME280;48954;59.950;11.014;2023-05-11T05:59:47;100022.10;;;8.28;65.08
62864;BME280;48954;59.950;11.014;2023-05-11T06:02:13;100026.76;;;8.44;65.02
62864;BME280;48954;59.950;11.014;2023-05-11T06:04:40;100027.79;;;8.55;64.62
62864;BME280;48954;59.950;11.014;2023-05-11T06:07:07;100023.08;;;8.62;64.40
62864;BME280;48954;59.950;11.014;2023-05-11T06:09:33;100027.58;;;8.72;64.45
62864;BME280;48954;59.950;11.014;2023-05-11T06:12:00;100030.09;;;8.81;64.33
62864;BME280;48954;59.950;11.014;2023-05-11T06:14:26;100027.42;;;8.88;63.88
62864;BME280;48954;59.950;11.014;2023-05-11T06:16:54;100034.18;;;8.93;63.70
62864;BME280;48954;59.950;11.014;2023-05-11T06:19:20;100038.67;;;8.99;63.50
62864;BME280;48954;59.950;11.014;2023-05-11T06:21:47;100038.41;;;9.05;63.45
62864;BME280;48954;59.950;11.014;2023-05-11T06:24:16;100043.27;;;9.11;63.32
62864;BME280;48954;59.950;11.014;2023-05-11T06:26:42;100046.48;;;9.15;63.21
62864;BME280;48954;59.950;11.014;2023-05-11T06:29:09;100048.76;;;9.22;63.04
62864;BME280;48954;59.950;11.014;2023-05-11T06:31:35;100050.61;;;9.28;62.72
62864;BME280;48954;59.950;11.014;2023-05-11T06:34:02;100047.46;;;9.36;62.63
62864;BME280;48954;59.950;11.014;2023-05-11T06:36:29;100045.27;;;9.43;62.67
62864;BME280;48954;59.950;11.014;2023-05-11T06:38:56;100044.45;;;9.52;62.52
62864;BME280;48954;59.950;11.014;2023-05-11T06:41:22;100046.68;;;9.61;62.35
62864;BME280;48954;59.950;11.014;2023-05-11T06:43:49;100047.55;;;9.69;62.02
62864;BME280;48954;59.950;11.014;2023-05-11T06:46:21;100050.09;;;9.75;61.96
62864;BME280;48954;59.950;11.014;2023-05-11T06:48:47;100048.71;;;9.84;61.73
62864;BME280;48954;59.950;11.014;2023-05-11T06:51:14;100049.52;;;9.90;61.82
62864;BME280;48954;59.950;11.014;2023-05-11T06:53:40;100049.94;;;9.96;61.50
62864;BME280;48954;59.950;11.014;2023-05-11T06:56:07;100052.30;;;9.99;61.17
62864;BME280;48954;59.950;11.014;2023-05-11T06:58:34;100058.27;;;10.04;60.89
62864;BME280;48954;59.950;11.014;2023-05-11T07:01:01;100061.55;;;10.09;60.91
62864;BME280;48954;59.950;11.014;2023-05-11T07:03:28;100066.27;;;10.15;60.94
62864;BME280;48954;59.950;11.014;2023-05-11T07:05:55;100069.58;;;10.25;60.65
62864;BME280;48954;59.950;11.014;2023-05-11T07:08:21;100072.40;;;10.35;60.61
62864;BME280;48954;59.950;11.014;2023-05-11T07:10:51;100073.23;;;10.43;59.79
62864;BME280;48954;59.950;11.014;2023-05-11T07:13:17;100069.06;;;10.48;59.78
62864;BME280;48954;59.950;11.014;2023-05-11T07:15:44;100073.85;;;10.57;59.85
62864;BME280;48954;59.950;11.014;2023-05-11T07:18:11;100077.89;;;10.63;59.37
62864;BME280;48954;59.950;11.014;2023-05-11T07:20:37;100076.90;;;10.68;59.40
62864;BME280;48954;59.950;11.014;2023-05-11T07:23:03;100071.30;;;10.76;59.25
62864;BME280;48954;59.950;11.014;2023-05-11T07:25:30;100065.49;;;10.85;59.01
62864;BME280;48954;59.950;11.014;2023-05-11T07:27:57;100073.11;;;10.94;58.84
62864;BME280;48954;59.950;11.014;2023-05-11T07:30:23;100079.23;;;11.02;58.58
62864;BME280;48954;59.950;11.014;2023-05-11T07:32:50;100077.71;;;11.08;57.99
62864;BME280;48954;59.950;11.014;2023-05-11T07:35:16;100082.43;;;11.17;58.09
62864;BME280;48954;59.950;11.014;2023-05-11T07:37:43;100086.33;;;11.25;57.87
62864;BME280;48954;59.950;11.014;2023-05-11T07:40:09;100087.55;;;11.36;57.83
62864;BME280;48954;59.950;11.014;2023-05-11T07:42:36;100088.35;;;11.47;57.32
62864;BME280;48954;59.950;11.014;2023-05-11T07:45:04;100089.98;;;11.63;57.63
62864;BME280;48954;59.950;11.014;2023-05-11T07:47:33;100095.52;;;11.84;57.40
62864;BME280;48954;59.950;11.014;2023-05-11T07:50:00;100090.37;;;11.99;56.95
62864;BME280;48954;59.950;11.014;2023-05-11T07:52:26;100089.94;;;12.20;56.68
62864;BME280;48954;59.950;11.014;2023-05-11T07:54:53;100088.19;;;12.41;56.36
62864;BME280;48954;59.950;11.014;2023-05-11T07:57:19;100085.35;;;12.79;56.47
62864;BME280;48954;59.950;11.014;2023-05-11T07:59:46;100082.89;;;13.25;56.09
62864;BME280;48954;59.950;11.014;2023-05-11T08:02:12;100082.38;;;13.89;55.69
62864;BME280;48954;59.950;11.014;2023-05-11T08:04:39;100083.96;;;14.29;54.78
62864;BME280;48954;59.950;11.014;2023-05-11T08:07:07;100084.95;;;14.51;54.34
62864;BME280;48954;59.950;11.014;2023-05-11T08:09:36;100090.05;;;14.69;53.71
62864;BME280;48954;59.950;11.014;2023-05-11T08:12:02;100090.86;;;14.76;53.34
62864;BME280;48954;59.950;11.014;2023-05-11T08:14:29;100091.13;;;14.78;52.63
62864;BME280;48954;59.950;11.014;2023-05-11T08:16:55;100092.66;;;14.74;52.24
62864;BME280;48954;59.950;11.014;2023-05-11T08:19:22;100089.41;;;14.68;52.12
62864;BME280;48954;59.950;11.014;2023-05-11T08:21:49;100091.22;;;14.64;51.91
62864;BME280;48954;59.950;11.014;2023-05-11T08:24:15;100093.84;;;14.59;51.65
62864;BME280;48954;59.950;11.014;2023-05-11T08:26:42;100092.83;;;14.54;51.49
62864;BME280;48954;59.950;11.014;2023-05-11T08:29:10;100094.77;;;14.51;51.47
62864;BME280;48954;59.950;11.014;2023-05-11T08:31:37;100101.20;;;14.47;51.30
62864;BME280;48954;59.950;11.014;2023-05-11T08:34:05;100099.77;;;14.46;51.19
62864;BME280;48954;59.950;11.014;2023-05-11T08:36:31;100097.23;;;14.40;50.82
62864;BME280;48954;59.950;11.014;2023-05-11T08:38:58;100099.67;;;14.35;50.80
62864;BME280;48954;59.950;11.014;2023-05-11T08:41:24;100104.10;;;14.39;50.83
62864;BME280;48954;59.950;11.014;2023-05-11T08:43:51;100111.09;;;14.40;50.60
62864;BME280;48954;59.950;11.014;2023-05-11T08:46:20;100109.25;;;14.39;50.36
62864;BME280;48954;59.950;11.014;2023-05-11T08:48:47;100108.70;;;14.40;50.32
62864;BME280;48954;59.950;11.014;2023-05-11T08:51:14;100106.89;;;14.36;50.07
62864;BME280;48954;59.950;11.014;2023-05-11T08:53:40;100110.52;;;14.39;50.27
62864;BME280;48954;59.950;11.014;2023-05-11T08:56:08;100110.39;;;14.42;49.97
62864;BME280;48954;59.950;11.014;2023-05-11T08:58:36;100115.55;;;14.44;49.88
62864;BME280;48954;59.950;11.014;2023-05-11T09:01:04;100119.77;;;14.47;49.89
62864;BME280;48954;59.950;11.014;2023-05-11T09:03:33;100114.42;;;14.48;49.73
62864;BME280;48954;59.950;11.014;2023-05-11T09:06:01;100116.77;;;14.51;49.70
62864;BME280;48954;59.950;11.014;2023-05-11T09:08:30;100123.37;;;14.56;49.68
62864;BME280;48954;59.950;11.014;2023-05-11T09:10:58;100114.71;;;14.59;49.40
62864;BME280;48954;59.950;11.014;2023-05-11T09:13:25;100118.18;;;14.64;49.30
62864;BME280;48954;59.950;11.014;2023-05-11T09:15:51;100115.91;;;14.68;49.20
62864;BME280;48954;59.950;11.014;2023-05-11T09:18:18;100115.94;;;14.71;49.10
62864;BME280;48954;59.950;11.014;2023-05-11T09:20:45;100115.36;;;14.68;48.78
62864;BME280;48954;59.950;11.014;2023-05-11T09:23:15;100114.02;;;14.69;48.83
62864;BME280;48954;59.950;11.014;2023-05-11T09:25:42;100117.56;;;14.73;48.77
62864;BME280;48954;59.950;11.014;2023-05-11T09:28:11;100120.23;;;14.76;48.69
62864;BME280;48954;59.950;11.014;2023-05-11T09:30:38;100117.21;;;14.76;48.59
62864;BME280;48954;59.950;11.014;2023-05-11T09:33:05;100118.87;;;14.76;48.38
62864;BME280;48954;59.950;11.014;2023-05-11T09:35:35;100124.45;;;14.79;48.53
62864;BME280;48954;59.950;11.014;2023-05-11T09:38:06;100121.04;;;14.80;48.21
62864;BME280;48954;59.950;11.014;2023-05-11T09:40:49;100120.41;;;14.81;48.20
62864;BME280;48954;59.950;11.014;2023-05-11T09:43:24;100114.81;;;14.83;48.07
62864;BME280;48954;59.950;11.014;2023-05-11T09:45:55;100117.88;;;14.87;47.82
62864;BME280;48954;59.950;11.014;2023-05-11T09:48:25;100121.09;;;14.92;47.74
62864;BME280;48954;59.950;11.014;2023-05-11T09:50:58;100128.38;;;14.99;47.85
62864;BME280;48954;59.950;11.014;2023-05-11T09:53:35;100130.82;;;15.07;47.76
62864;BME280;48954;59.950;11.014;2023-05-11T09:56:02;100139.06;;;15.14;47.57
62864;BME280;48954;59.950;11.014;2023-05-11T10:01:16;100129.79;;;15.30;46.74
62864;BME280;48954;59.950;11.014;2023-05-11T10:03:50;100129.06;;;15.38;46.77
62864;BME280;48954;59.950;11.014;2023-05-11T10:06:22;100131.12;;;15.47;46.66
62864;BME280;48954;59.950;11.014;2023-05-11T10:08:49;100140.49;;;15.56;46.46
62864;BME280;48954;59.950;11.014;2023-05-11T10:11:16;100136.98;;;15.64;46.35
62864;BME280;48954;59.950;11.014;2023-05-11T10:13:43;100135.58;;;15.77;46.27
62864;BME280;48954;59.950;11.014;2023-05-11T10:16:12;100134.34;;;15.91;46.41
62864;BME280;48954;59.950;11.014;2023-05-11T10:18:40;100133.02;;;16.08;46.08
62864;BME280;48954;59.950;11.014;2023-05-11T10:21:07;100131.92;;;16.26;45.57
62864;BME280;48954;59.950;11.014;2023-05-11T10:23:34;100132.73;;;16.42;45.18
62864;BME280;48954;59.950;11.014;2023-05-11T10:26:03;100136.04;;;16.52;45.02
62864;BME280;48954;59.950;11.014;2023-05-11T10:28:31;100135.58;;;16.57;44.95
62864;BME280;48954;59.950;11.014;2023-05-11T10:30:59;100132.25;;;16.57;44.18
62864;BME280;48954;59.950;11.014;2023-05-11T10:33:26;100135.22;;;16.48;43.88
62864;BME280;48954;59.950;11.014;2023-05-11T10:35:53;100137.86;;;16.38;43.61
62864;BME280;48954;59.950;11.014;2023-05-11T10:38:20;100139.95;;;16.28;43.55
62864;BME280;48954;59.950;11.014;2023-05-11T10:40:47;100143.48;;;16.19;43.31
62864;BME280;48954;59.950;11.014;2023-05-11T10:43:48;100148.25;;;16.09;43.49
62864;BME280;48954;59.950;11.014;2023-05-11T10:49:35;100147.93;;;15.96;43.50
62864;BME280;48954;59.950;11.014;2023-05-11T10:55:26;100149.09;;;15.81;43.45
62864;BME280;48954;59.950;11.014;2023-05-11T10:58:06;100155.70;;;15.76;43.32
62864;BME280;48954;59.950;11.014;2023-05-11T11:03:28;100162.62;;;15.68;43.27
62864;BME280;48954;59.950;11.014;2023-05-11T11:05:55;100163.48;;;15.66;43.17
62864;BME280;48954;59.950;11.014;2023-05-11T11:08:21;100165.38;;;15.65;43.23
62864;BME280;48954;59.950;11.014;2023-05-11T11:10:48;100163.05;;;15.62;42.91
62864;BME280;48954;59.950;11.014;2023-05-11T11:13:16;100164.60;;;15.60;43.15
62864;BME280;48954;59.950;11.014;2023-05-11T11:18:24;100166.07;;;15.65;43.32
62864;BME280;48954;59.950;11.014;2023-05-11T11:20:53;100169.34;;;15.66;43.02
62864;BME280;48954;59.950;11.014;2023-05-11T11:26:06;100170.52;;;15.65;43.21
62864;BME280;48954;59.950;11.014;2023-05-11T11:31:28;100171.55;;;15.55;42.80
62864;BME280;48954;59.950;11.014;2023-05-11T11:39:21;100180.77;;;15.48;42.55
62864;BME280;48954;59.950;11.014;2023-05-11T11:42:01;100184.95;;;15.44;42.61
62864;BME280;48954;59.950;11.014;2023-05-11T11:44:29;100186.52;;;15.42;42.72
62864;BME280;48954;59.950;11.014;2023-05-11T11:47:15;100186.91;;;15.42;42.62
62864;BME280;48954;59.950;11.014;2023-05-11T11:49:44;100186.34;;;15.40;42.70
62864;BME280;48954;59.950;11.014;2023-05-11T11:55:01;100192.80;;;15.37;42.43
62864;BME280;48954;59.950;11.014;2023-05-11T12:00:03;100194.02;;;15.31;42.38
62864;BME280;48954;59.950;11.014;2023-05-11T12:02:31;100196.20;;;15.28;42.52
62864;BME280;48954;59.950;11.014;2023-05-11T12:05:15;100198.58;;;15.29;42.72
62864;BME280;48954;59.950;11.014;2023-05-11T12:07:45;100192.03;;;15.32;43.04
62864;BME280;48954;59.950;11.014;2023-05-11T12:10:13;100192.96;;;15.38;43.13
62864;BME280;48954;59.950;11.014;2023-05-11T12:12:44;100195.56;;;15.43;42.90
62864;BME280;48954;59.950;11.014;2023-05-11T12:15:24;100192.55;;;15.46;43.36
62864;BME280;48954;59.950;11.014;2023-05-11T12:17:53;100194.94;;;15.47;43.17
62864;BME280;48954;59.950;11.014;2023-05-11T12:20:20;100197.80;;;15.47;42.87
62864;BME280;48954;59.950;11.014;2023-05-11T12:22:46;100201.59;;;15.47;42.89
62864;BME280;48954;59.950;11.014;2023-05-11T12:25:18;100203.11;;;15.47;42.93
62864;BME280;48954;59.950;11.014;2023-05-11T12:27:53;100200.39;;;15.44;42.77
62864;BME280;48954;59.950;11.014;2023-05-11T12:30:22;100202.52;;;15.42;43.22
62864;BME280;48954;59.950;11.014;2023-05-11T12:32:49;100203.80;;;15.37;42.99
62864;BME280;48954;59.950;11.014;2023-05-11T12:35:22;100211.27;;;15.32;43.13
62864;BME280;48954;59.950;11.014;2023-05-11T12:37:48;100206.24;;;15.27;43.27
62864;BME280;48954;59.950;11.014;2023-05-11T12:40:15;100208.80;;;15.23;43.21
62864;BME280;48954;59.950;11.014;2023-05-11T12:42:52;100209.21;;;15.16;43.28
62864;BME280;48954;59.950;11.014;2023-05-11T12:45:20;100209.05;;;15.10;43.16
62864;BME280;48954;59.950;11.014;2023-05-11T12:47:48;100209.65;;;15.07;43.50
62864;BME280;48954;59.950;11.014;2023-05-11T12:50:15;100205.61;;;15.05;43.45
62864;BME280;48954;59.950;11.014;2023-05-11T12:52:42;100211.69;;;15.04;43.58
62864;BME280;48954;59.950;11.014;2023-05-11T12:55:09;100207.85;;;15.02;43.52
62864;BME280;48954;59.950;11.014;2023-05-11T12:57:37;100209.55;;;14.98;43.63
62864;BME280;48954;59.950;11.014;2023-05-11T13:00:14;100206.58;;;14.95;43.55
62864;BME280;48954;59.950;11.014;2023-05-11T13:02:54;100204.60;;;14.93;43.64
62864;BME280;48954;59.950;11.014;2023-05-11T13:05:26;100207.66;;;14.91;43.76
62864;BME280;48954;59.950;11.014;2023-05-11T13:08:03;100205.83;;;14.90;43.65
62864;BME280;48954;59.950;11.014;2023-05-11T13:10:30;100210.05;;;14.87;43.60
62864;BME280;48954;59.950;11.014;2023-05-11T13:12:57;100214.07;;;14.86;43.79
62864;BME280;48954;59.950;11.014;2023-05-11T13:15:24;100213.80;;;14.83;43.80
62864;BME280;48954;59.950;11.014;2023-05-11T13:17:59;100215.80;;;14.79;43.99
62864;BME280;48954;59.950;11.014;2023-05-11T13:23:03;100224.65;;;14.72;44.13
62864;BME280;48954;59.950;11.014;2023-05-11T13:25:51;100225.81;;;14.70;44.29
62864;BME280;48954;59.950;11.014;2023-05-11T13:28:23;100221.42;;;14.67;44.20
62864;BME280;48954;59.950;11.014;2023-05-11T13:30:51;100223.30;;;14.64;44.24
62864;BME280;48954;59.950;11.014;2023-05-11T13:33:23;100224.02;;;14.60;44.22
62864;BME280;48954;59.950;11.014;2023-05-11T13:35:50;100225.16;;;14.56;44.33
62864;BME280;48954;59.950;11.014;2023-05-11T13:38:17;100221.02;;;14.54;44.36
62864;BME280;48954;59.950;11.014;2023-05-11T13:40:44;100221.99;;;14.50;44.39
62864;BME280;48954;59.950;11.014;2023-05-11T13:43:11;100222.77;;;14.49;44.56